sensor_id;sensor_type;location;lat;lon;timestamp;pressure;altitude;pressure_sealevel;temperature;humidity
17764;BME280;22245;52.832;13.816;2022-11-25T00:02:55;101424.88;;;4.04;85.77
17764;BME280;22245;52.832;13.816;2022-11-25T00:06:20;101424.84;;;4.05;85.71
17764;BME280;22245;52.832;13.816;2022-11-25T00:09:42;101425.63;;;4.08;85.36
17764;BME280;22245;52.832;13.816;2022-11-25T00:13:03;101427.38;;;4.07;85.40
17764;BME280;22245;52.832;13.816;2022-11-25T00:16:25;101418.53;;;4.08;85.64
17764;BME280;22245;52.832;13.816;2022-11-25T00:19:48;101425.47;;;4.11;85.65
17764;BME280;22245;52.832;13.816;2022-11-25T00:23:11;101431.44;;;4.14;85.57
17764;BME280;22245;52.832;13.816;2022-11-25T00:26:34;101431.31;;;4.17;85.23
17764;BME280;22245;52.832;13.816;2022-11-25T00:29:56;101420.69;;;4.19;85.69
17764;BME280;22245;52.832;13.816;2022-11-25T00:33:18;101421.47;;;4.21;85.35
17764;BME280;22245;52.832;13.816;2022-11-25T00:36:40;101424.97;;;4.22;84.82
17764;BME280;22245;52.832;13.816;2022-11-25T00:40:05;101424.88;;;4.23;85.46
17764;BME280;22245;52.832;13.816;2022-11-25T00:43:27;101427.47;;;4.25;85.05
17764;BME280;22245;52.832;13.816;2022-11-25T00:47:08;101424.66;;;4.28;85.32
17764;BME280;22245;52.832;13.816;2022-11-25T00:50:31;101432.63;;;4.26;84.59
17764;BME280;22245;52.832;13.816;2022-11-25T00:53:53;101434.44;;;4.26;84.59
17764;BME280;22245;52.832;13.816;2022-11-25T00:57:21;101430.09;;;4.25;85.14
17764;BME280;22245;52.832;13.816;2022-11-25T01:00:44;101427.50;;;4.23;84.95
17764;BME280;22245;52.832;13.816;2022-11-25T01:04:07;101428.38;;;4.24;85.16
17764;BME280;22245;52.832;13.816;2022-11-25T01:07:29;101431.84;;;4.24;85.20
17764;BME280;22245;52.832;13.816;2022-11-25T01:10:57;101441.72;;;4.20;85.01
17764;BME280;22245;52.832;13.816;2022-11-25T01:14:21;101430.38;;;4.18;85.07
17764;BME280;22245;52.832;13.816;2022-11-25T01:17:43;101432.16;;;4.18;85.42
17764;BME280;22245;52.832;13.816;2022-11-25T01:21:06;101428.69;;;4.17;85.41
17764;BME280;22245;52.832;13.816;2022-11-25T01:24:27;101433.09;;;4.17;85.36
17764;BME280;22245;52.832;13.816;2022-11-25T01:27:49;101436.66;;;4.16;85.41
17764;BME280;22245;52.832;13.816;2022-11-25T01:31:14;101428.78;;;4.14;85.02
17764;BME280;22245;52.832;13.816;2022-11-25T01:34:36;101423.53;;;4.14;84.75
17764;BME280;22245;52.832;13.816;2022-11-25T01:37:58;101413.84;;;4.15;84.77
17764;BME280;22245;52.832;13.816;2022-11-25T01:41:21;101417.47;;;4.12;84.73
17764;BME280;22245;52.832;13.816;2022-11-25T01:44:43;101420.97;;;4.13;84.77
17764;BME280;22245;52.832;13.816;2022-11-25T01:48:11;101420.19;;;4.11;84.41
17764;BME280;22245;52.832;13.816;2022-11-25T01:51:39;101418.53;;;4.08;84.49
17764;BME280;22245;52.832;13.816;2022-11-25T01:55:06;101416.84;;;4.07;84.68
17764;BME280;22245;52.832;13.816;2022-11-25T01:58:32;101423.81;;;4.08;84.96
17764;BME280;22245;52.832;13.816;2022-11-25T02:01:57;101415.13;;;4.06;84.66
17764;BME280;22245;52.832;13.816;2022-11-25T02:05:24;101421.28;;;4.07;84.92
17764;BME280;22245;52.832;13.816;2022-11-25T02:08:56;101408.28;;;4.02;84.17
17764;BME280;22245;52.832;13.816;2022-11-25T02:12:20;101413.84;;;3.96;85.20
17764;BME280;22245;52.832;13.816;2022-11-25T02:15:42;101416.69;;;3.91;85.32
17764;BME280;22245;52.832;13.816;2022-11-25T02:19:06;101409.72;;;3.90;85.71
17764;BME280;22245;52.832;13.816;2022-11-25T02:22:45;101411.50;;;3.89;86.03
17764;BME280;22245;52.832;13.816;2022-11-25T02:26:09;101406.28;;;3.88;86.13
17764;BME280;22245;52.832;13.816;2022-11-25T02:29:31;101413.28;;;3.89;87.02
17764;BME280;22245;52.832;13.816;2022-11-25T02:32:54;101423.97;;;3.86;86.96
17764;BME280;22245;52.832;13.816;2022-11-25T02:36:17;101419.63;;;3.85;87.08
17764;BME280;22245;52.832;13.816;2022-11-25T02:39:40;101420.41;;;3.87;87.26
17764;BME280;22245;52.832;13.816;2022-11-25T02:43:06;101416.00;;;3.87;87.44
17764;BME280;22245;52.832;13.816;2022-11-25T02:46:29;101412.44;;;3.88;87.30
17764;BME280;22245;52.832;13.816;2022-11-25T02:49:53;101415.06;;;3.88;87.14
17764;BME280;22245;52.832;13.816;2022-11-25T02:53:15;101415.06;;;3.88;87.91
17764;BME280;22245;52.832;13.816;2022-11-25T02:56:37;101420.41;;;3.87;88.00
17764;BME280;22245;52.832;13.816;2022-11-25T03:00:03;101416.94;;;3.86;87.44
17764;BME280;22245;52.832;13.816;2022-11-25T03:03:25;101421.28;;;3.87;87.96
17764;BME280;22245;52.832;13.816;2022-11-25T03:06:47;101413.41;;;3.86;88.42
17764;BME280;22245;52.832;13.816;2022-11-25T03:10:09;101410.88;;;3.84;88.21
17764;BME280;22245;52.832;13.816;2022-11-25T03:13:31;101410.78;;;3.86;88.66
17764;BME280;22245;52.832;13.816;2022-11-25T03:16:55;101420.41;;;3.87;89.17
17764;BME280;22245;52.832;13.816;2022-11-25T03:20:19;101427.38;;;3.88;89.05
17764;BME280;22245;52.832;13.816;2022-11-25T03:23:40;101430.00;;;3.88;88.91
17764;BME280;22245;52.832;13.816;2022-11-25T03:27:03;101434.44;;;3.87;89.13
17764;BME280;22245;52.832;13.816;2022-11-25T03:30:26;101431.88;;;3.86;89.64
17764;BME280;22245;52.832;13.816;2022-11-25T03:33:54;101438.00;;;3.86;89.83
17764;BME280;22245;52.832;13.816;2022-11-25T03:37:16;101431.09;;;3.84;90.21
17764;BME280;22245;52.832;13.816;2022-11-25T03:40:37;101432.00;;;3.83;90.06
17764;BME280;22245;52.832;13.816;2022-11-25T03:43:59;101429.38;;;3.83;90.11
17764;BME280;22245;52.832;13.816;2022-11-25T03:47:22;101431.09;;;3.84;90.46
17764;BME280;22245;52.832;13.816;2022-11-25T03:50:47;101421.56;;;3.81;89.71
17764;BME280;22245;52.832;13.816;2022-11-25T03:54:08;101419.75;;;3.82;89.91
17764;BME280;22245;52.832;13.816;2022-11-25T03:58:02;101416.16;;;3.84;90.52
17764;BME280;22245;52.832;13.816;2022-11-25T04:01:25;101433.72;;;3.84;90.00
17764;BME280;22245;52.832;13.816;2022-11-25T04:04:47;101421.41;;;3.84;90.44
17764;BME280;22245;52.832;13.816;2022-11-25T04:08:11;101427.53;;;3.85;90.37
17764;BME280;22245;52.832;13.816;2022-11-25T04:11:34;101424.84;;;3.86;90.24
17764;BME280;22245;52.832;13.816;2022-11-25T04:15:14;101418.56;;;3.89;90.02
17764;BME280;22245;52.832;13.816;2022-11-25T04:18:37;101418.50;;;3.90;89.78
17764;BME280;22245;52.832;13.816;2022-11-25T04:21:59;101419.34;;;3.91;89.02
17764;BME280;22245;52.832;13.816;2022-11-25T04:25:25;101418.50;;;3.90;89.06
17764;BME280;22245;52.832;13.816;2022-11-25T04:28:47;101426.41;;;3.90;89.46
17764;BME280;22245;52.832;13.816;2022-11-25T04:32:12;101449.19;;;3.91;89.15
17764;BME280;22245;52.832;13.816;2022-11-25T04:35:34;101469.13;;;3.97;88.59
17764;BME280;22245;52.832;13.816;2022-11-25T04:38:56;101448.03;;;3.97;87.79
17764;BME280;22245;52.832;13.816;2022-11-25T04:42:19;101466.44;;;3.99;87.78
17764;BME280;22245;52.832;13.816;2022-11-25T04:45:57;101448.75;;;4.01;87.19
17764;BME280;22245;52.832;13.816;2022-11-25T04:49:36;101454.03;;;4.01;86.85
17764;BME280;22245;52.832;13.816;2022-11-25T04:52:58;101467.06;;;4.04;86.26
17764;BME280;22245;52.832;13.816;2022-11-25T04:56:20;101460.09;;;4.03;86.18
17764;BME280;22245;52.832;13.816;2022-11-25T04:59:46;101468.00;;;4.03;86.07
17764;BME280;22245;52.832;13.816;2022-11-25T05:03:08;101462.72;;;4.03;86.17
17764;BME280;22245;52.832;13.816;2022-11-25T05:06:31;101470.63;;;4.03;86.75
17764;BME280;22245;52.832;13.816;2022-11-25T05:09:53;101470.72;;;4.01;85.88
17764;BME280;22245;52.832;13.816;2022-11-25T05:13:35;101469.94;;;3.99;86.71
17764;BME280;22245;52.832;13.816;2022-11-25T05:16:59;101475.25;;;3.98;86.71
17764;BME280;22245;52.832;13.816;2022-11-25T05:20:20;101482.19;;;4.00;86.20
17764;BME280;22245;52.832;13.816;2022-11-25T05:23:42;101486.78;;;3.95;86.17
17764;BME280;22245;52.832;13.816;2022-11-25T05:27:04;101480.47;;;3.99;86.82
17764;BME280;22245;52.832;13.816;2022-11-25T05:30:26;101478.53;;;4.03;86.49
17764;BME280;22245;52.832;13.816;2022-11-25T05:33:49;101483.66;;;4.06;86.18
17764;BME280;22245;52.832;13.816;2022-11-25T05:37:12;101482.72;;;4.07;86.17
17764;BME280;22245;52.832;13.816;2022-11-25T05:40:46;101481.03;;;4.06;86.11
17764;BME280;22245;52.832;13.816;2022-11-25T05:44:10;101478.38;;;4.06;85.94
17764;BME280;22245;52.832;13.816;2022-11-25T05:47:31;101480.88;;;4.09;85.60
17764;BME280;22245;52.832;13.816;2022-11-25T05:50:58;101494.94;;;4.10;85.72
17764;BME280;22245;52.832;13.816;2022-11-25T05:54:21;101503.78;;;4.09;85.82
17764;BME280;22245;52.832;13.816;2022-11-25T05:57:43;101502.91;;;4.08;85.54
17764;BME280;22245;52.832;13.816;2022-11-25T06:01:06;101489.72;;;4.08;85.46
17764;BME280;22245;52.832;13.816;2022-11-25T06:04:28;101499.34;;;4.09;85.56
17764;BME280;22245;52.832;13.816;2022-11-25T06:07:51;101494.78;;;4.13;85.40
17764;BME280;22245;52.832;13.816;2022-11-25T06:11:16;101494.78;;;4.13;85.80
17764;BME280;22245;52.832;13.816;2022-11-25T06:14:38;101492.22;;;4.11;85.51
17764;BME280;22245;52.832;13.816;2022-11-25T06:18:00;101496.56;;;4.12;85.65
17764;BME280;22245;52.832;13.816;2022-11-25T06:21:25;101493.88;;;4.14;85.64
17764;BME280;22245;52.832;13.816;2022-11-25T06:24:48;101499.97;;;4.14;85.44
17764;BME280;22245;52.832;13.816;2022-11-25T06:28:21;101511.25;;;4.18;84.95
17764;BME280;22245;52.832;13.816;2022-11-25T06:31:43;101508.66;;;4.16;85.15
17764;BME280;22245;52.832;13.816;2022-11-25T06:35:25;101509.47;;;4.18;85.07
17764;BME280;22245;52.832;13.816;2022-11-25T06:38:53;101508.63;;;4.18;85.06
17764;BME280;22245;52.832;13.816;2022-11-25T06:42:16;101507.69;;;4.19;85.10
17764;BME280;22245;52.832;13.816;2022-11-25T06:45:38;101509.25;;;4.23;84.98
17764;BME280;22245;52.832;13.816;2022-11-25T06:49:00;101507.41;;;4.25;84.56
17764;BME280;22245;52.832;13.816;2022-11-25T06:52:22;101508.25;;;4.26;85.07
17764;BME280;22245;52.832;13.816;2022-11-25T06:55:44;101509.06;;;4.28;84.99
17764;BME280;22245;52.832;13.816;2022-11-25T06:59:07;101516.22;;;4.24;84.83
17764;BME280;22245;52.832;13.816;2022-11-25T07:02:29;101512.75;;;4.24;84.80
17764;BME280;22245;52.832;13.816;2022-11-25T07:05:59;101504.84;;;4.24;84.92
17764;BME280;22245;52.832;13.816;2022-11-25T07:09:21;101512.91;;;4.20;85.14
17764;BME280;22245;52.832;13.816;2022-11-25T07:12:44;101518.03;;;4.24;85.50
17764;BME280;22245;52.832;13.816;2022-11-25T07:16:07;101521.44;;;4.26;85.59
17764;BME280;22245;52.832;13.816;2022-11-25T07:19:30;101521.38;;;4.27;85.58
17764;BME280;22245;52.832;13.816;2022-11-25T07:22:52;101532.63;;;4.31;85.44
17764;BME280;22245;52.832;13.816;2022-11-25T07:26:16;101528.28;;;4.30;85.33
17764;BME280;22245;52.832;13.816;2022-11-25T07:29:38;101529.22;;;4.29;85.78
17764;BME280;22245;52.832;13.816;2022-11-25T07:33:21;101525.56;;;4.31;85.50
17764;BME280;22245;52.832;13.816;2022-11-25T07:36:43;101522.88;;;4.33;86.08
17764;BME280;22245;52.832;13.816;2022-11-25T07:40:07;101529.78;;;4.35;86.55
17764;BME280;22245;52.832;13.816;2022-11-25T07:43:29;101527.03;;;4.39;86.38
17764;BME280;22245;52.832;13.816;2022-11-25T07:46:53;101529.56;;;4.40;86.09
17764;BME280;22245;52.832;13.816;2022-11-25T07:50:16;101535.72;;;4.41;86.22
17764;BME280;22245;52.832;13.816;2022-11-25T07:53:38;101535.63;;;4.42;86.18
17764;BME280;22245;52.832;13.816;2022-11-25T07:57:00;101531.13;;;4.44;86.52
17764;BME280;22245;52.832;13.816;2022-11-25T08:00:21;101534.56;;;4.46;86.59
17764;BME280;22245;52.832;13.816;2022-11-25T08:03:44;101534.50;;;4.48;86.44
17764;BME280;22245;52.832;13.816;2022-11-25T08:07:09;101542.25;;;4.51;86.46
17764;BME280;22245;52.832;13.816;2022-11-25T08:10:31;101537.81;;;4.52;86.80
17764;BME280;22245;52.832;13.816;2022-11-25T08:13:53;101538.53;;;4.55;86.80
17764;BME280;22245;52.832;13.816;2022-11-25T08:17:15;101537.56;;;4.58;86.80
17764;BME280;22245;52.832;13.816;2022-11-25T08:20:37;101535.84;;;4.57;86.88
17764;BME280;22245;52.832;13.816;2022-11-25T08:24:00;101540.97;;;4.60;87.00
17764;BME280;22245;52.832;13.816;2022-11-25T08:27:23;101538.25;;;4.61;86.98
17764;BME280;22245;52.832;13.816;2022-11-25T08:30:45;101546.94;;;4.63;87.13
17764;BME280;22245;52.832;13.816;2022-11-25T08:34:07;101545.97;;;4.66;87.09
17764;BME280;22245;52.832;13.816;2022-11-25T08:37:29;101545.97;;;4.66;87.36
17764;BME280;22245;52.832;13.816;2022-11-25T08:40:52;101542.31;;;4.69;87.61
17764;BME280;22245;52.832;13.816;2022-11-25T08:44:15;101543.09;;;4.71;87.90
17764;BME280;22245;52.832;13.816;2022-11-25T08:47:36;101552.34;;;4.80;89.62
17764;BME280;22245;52.832;13.816;2022-11-25T08:50:58;101549.50;;;4.84;88.87
17764;BME280;22245;52.832;13.816;2022-11-25T08:54:20;101562.47;;;4.89;87.95
17764;BME280;22245;52.832;13.816;2022-11-25T08:57:43;101565.09;;;4.89;87.78
17764;BME280;22245;52.832;13.816;2022-11-25T09:01:06;101571.25;;;4.89;87.59
17764;BME280;22245;52.832;13.816;2022-11-25T09:04:28;101577.31;;;4.91;87.80
17764;BME280;22245;52.832;13.816;2022-11-25T09:07:50;101579.09;;;4.91;87.90
17764;BME280;22245;52.832;13.816;2022-11-25T09:11:12;101572.03;;;4.91;88.13
17764;BME280;22245;52.832;13.816;2022-11-25T09:14:35;101577.25;;;4.93;88.09
17764;BME280;22245;52.832;13.816;2022-11-25T09:18:01;101570.81;;;4.99;88.26
17764;BME280;22245;52.832;13.816;2022-11-25T09:21:23;101577.63;;;5.03;88.26
17764;BME280;22245;52.832;13.816;2022-11-25T09:24:45;101580.13;;;5.06;88.30
17764;BME280;22245;52.832;13.816;2022-11-25T09:28:08;101587.91;;;5.09;88.20
17764;BME280;22245;52.832;13.816;2022-11-25T09:31:32;101578.13;;;5.11;88.26
17764;BME280;22245;52.832;13.816;2022-11-25T09:34:54;101580.53;;;5.16;88.25
17764;BME280;22245;52.832;13.816;2022-11-25T09:38:16;101578.78;;;5.16;88.36
17764;BME280;22245;52.832;13.816;2022-11-25T09:41:48;101577.69;;;5.20;88.50
17764;BME280;22245;52.832;13.816;2022-11-25T09:45:35;101584.44;;;5.26;88.48
17764;BME280;22245;52.832;13.816;2022-11-25T09:49:34;101578.09;;;5.30;88.82
17764;BME280;22245;52.832;13.816;2022-11-25T09:53:08;101576.22;;;5.32;88.86
17764;BME280;22245;52.832;13.816;2022-11-25T09:56:38;101576.75;;;5.39;88.64
17764;BME280;22245;52.832;13.816;2022-11-25T10:00:06;101583.59;;;5.43;88.99
17764;BME280;22245;52.832;13.816;2022-11-25T10:03:38;101587.88;;;5.46;89.22
17764;BME280;22245;52.832;13.816;2022-11-25T10:07:07;101581.50;;;5.50;89.49
17764;BME280;22245;52.832;13.816;2022-11-25T10:10:38;101582.13;;;5.55;89.57
17764;BME280;22245;52.832;13.816;2022-11-25T10:14:05;101587.09;;;5.61;89.14
17764;BME280;22245;52.832;13.816;2022-11-25T10:17:34;101584.22;;;5.66;89.16
17764;BME280;22245;52.832;13.816;2022-11-25T10:20:58;101579.66;;;5.70;89.21
17764;BME280;22245;52.832;13.816;2022-11-25T10:24:26;101578.47;;;5.75;88.77
17764;BME280;22245;52.832;13.816;2022-11-25T10:27:53;101580.00;;;5.79;88.66
17764;BME280;22245;52.832;13.816;2022-11-25T10:31:18;101569.22;;;5.84;88.44
17764;BME280;22245;52.832;13.816;2022-11-25T10:34:43;101573.34;;;5.90;88.27
17764;BME280;22245;52.832;13.816;2022-11-25T10:38:12;101585.53;;;5.92;87.91
17764;BME280;22245;52.832;13.816;2022-11-25T10:41:45;101582.72;;;5.96;88.17
17764;BME280;22245;52.832;13.816;2022-11-25T10:45:11;101578.22;;;5.98;88.11
17764;BME280;22245;52.832;13.816;2022-11-25T10:48:45;101577.13;;;6.02;87.86
17764;BME280;22245;52.832;13.816;2022-11-25T10:52:12;101572.63;;;6.04;88.03
17764;BME280;22245;52.832;13.816;2022-11-25T10:55:34;101570.69;;;6.07;87.83
17764;BME280;22245;52.832;13.816;2022-11-25T10:58:57;101567.03;;;6.10;87.79
17764;BME280;22245;52.832;13.816;2022-11-25T11:02:37;101562.41;;;6.14;87.66
17764;BME280;22245;52.832;13.816;2022-11-25T11:05:59;101564.91;;;6.17;87.70
17764;BME280;22245;52.832;13.816;2022-11-25T11:09:34;101560.38;;;6.19;87.95
17764;BME280;22245;52.832;13.816;2022-11-25T11:12:58;101561.91;;;6.23;87.70
17764;BME280;22245;52.832;13.816;2022-11-25T11:16:36;101557.31;;;6.27;87.81
17764;BME280;22245;52.832;13.816;2022-11-25T11:20:00;101549.31;;;6.28;87.87
17764;BME280;22245;52.832;13.816;2022-11-25T11:23:23;101557.94;;;6.32;87.71
17764;BME280;22245;52.832;13.816;2022-11-25T11:26:45;101563.03;;;6.35;87.93
17764;BME280;22245;52.832;13.816;2022-11-25T11:30:09;101568.16;;;6.38;87.78
17764;BME280;22245;52.832;13.816;2022-11-25T11:33:41;101552.28;;;6.38;87.32
17764;BME280;22245;52.832;13.816;2022-11-25T11:37:16;101560.06;;;6.41;87.84
17764;BME280;22245;52.832;13.816;2022-11-25T11:40:44;101560.00;;;6.43;87.90
17764;BME280;22245;52.832;13.816;2022-11-25T11:44:17;101562.63;;;6.43;87.83
17764;BME280;22245;52.832;13.816;2022-11-25T11:47:58;101559.06;;;6.44;88.07
17764;BME280;22245;52.832;13.816;2022-11-25T11:51:30;101549.16;;;6.47;87.90
17764;BME280;22245;52.832;13.816;2022-11-25T11:55:00;101549.00;;;6.50;87.82
17764;BME280;22245;52.832;13.816;2022-11-25T11:58:34;101551.47;;;6.54;87.67
17764;BME280;22245;52.832;13.816;2022-11-25T12:02:19;101559.31;;;6.55;87.68
17764;BME280;22245;52.832;13.816;2022-11-25T12:05:45;101548.81;;;6.54;87.18
17764;BME280;22245;52.832;13.816;2022-11-25T12:09:19;101552.13;;;6.57;87.32
17764;BME280;22245;52.832;13.816;2022-11-25T12:12:48;101557.34;;;6.59;87.02
17764;BME280;22245;52.832;13.816;2022-11-25T12:16:15;101554.72;;;6.59;87.65
17764;BME280;22245;52.832;13.816;2022-11-25T12:19:43;101549.41;;;6.59;87.64
17764;BME280;22245;52.832;13.816;2022-11-25T12:23:12;101546.59;;;6.62;87.29
17764;BME280;22245;52.832;13.816;2022-11-25T12:26:38;101541.31;;;6.62;87.65
17764;BME280;22245;52.832;13.816;2022-11-25T12:30:05;101548.13;;;6.66;87.47
17764;BME280;22245;52.832;13.816;2022-11-25T12:33:38;101549.84;;;6.67;87.76
17764;BME280;22245;52.832;13.816;2022-11-25T12:37:09;101541.81;;;6.69;87.34
17764;BME280;22245;52.832;13.816;2022-11-25T12:40:40;101542.66;;;6.69;87.36
17764;BME280;22245;52.832;13.816;2022-11-25T12:44:09;101549.66;;;6.70;87.63
17764;BME280;22245;52.832;13.816;2022-11-25T12:47:34;101554.03;;;6.71;87.67
17764;BME280;22245;52.832;13.816;2022-11-25T12:51:01;101555.72;;;6.72;87.65
17764;BME280;22245;52.832;13.816;2022-11-25T12:55:02;101553.84;;;6.74;87.99
17764;BME280;22245;52.832;13.816;2022-11-25T12:58:48;101560.78;;;6.77;87.65
17764;BME280;22245;52.832;13.816;2022-11-25T13:02:29;101554.63;;;6.76;87.77
17764;BME280;22245;52.832;13.816;2022-11-25T13:06:08;101552.66;;;6.80;87.80
17764;BME280;22245;52.832;13.816;2022-11-25T13:09:59;101552.56;;;6.81;87.75
17764;BME280;22245;52.832;13.816;2022-11-25T13:13:36;101554.28;;;6.83;87.83
17764;BME280;22245;52.832;13.816;2022-11-25T13:17:06;101557.72;;;6.85;87.55
17764;BME280;22245;52.832;13.816;2022-11-25T13:20:41;101557.78;;;6.83;87.57
17764;BME280;22245;52.832;13.816;2022-11-25T13:24:28;101566.59;;;6.84;87.19
17764;BME280;22245;52.832;13.816;2022-11-25T13:28:01;101555.13;;;6.83;87.17
17764;BME280;22245;52.832;13.816;2022-11-25T13:31:29;101562.25;;;6.83;87.46
17764;BME280;22245;52.832;13.816;2022-11-25T13:39:10;101564.09;;;6.80;87.44
17764;BME280;22245;52.832;13.816;2022-11-25T13:42:33;101566.72;;;6.80;87.47
17764;BME280;22245;52.832;13.816;2022-11-25T13:46:04;101579.03;;;6.81;87.11
17764;BME280;22245;52.832;13.816;2022-11-25T13:49:32;101568.63;;;6.78;87.32
17764;BME280;22245;52.832;13.816;2022-11-25T13:52:58;101573.06;;;6.78;87.35
17764;BME280;22245;52.832;13.816;2022-11-25T13:56:27;101571.25;;;6.78;87.32
17764;BME280;22245;52.832;13.816;2022-11-25T13:59:53;101571.38;;;6.77;87.37
17764;BME280;22245;52.832;13.816;2022-11-25T14:03:53;101581.09;;;6.76;87.29
17764;BME280;22245;52.832;13.816;2022-11-25T14:07:25;101586.38;;;6.76;87.37
17764;BME280;22245;52.832;13.816;2022-11-25T14:10:57;101594.50;;;6.73;87.07
17764;BME280;22245;52.832;13.816;2022-11-25T14:14:39;101591.94;;;6.72;87.38
17764;BME280;22245;52.832;13.816;2022-11-25T14:22:46;101603.56;;;6.69;87.10
17764;BME280;22245;52.832;13.816;2022-11-25T14:26:24;101599.13;;;6.70;86.91
17764;BME280;22245;52.832;13.816;2022-11-25T14:30:10;101602.78;;;6.67;87.42
17764;BME280;22245;52.832;13.816;2022-11-25T14:33:35;101600.25;;;6.65;87.50
17764;BME280;22245;52.832;13.816;2022-11-25T14:37:03;101611.84;;;6.63;87.19
17764;BME280;22245;52.832;13.816;2022-11-25T14:40:33;101613.72;;;6.61;87.06
17764;BME280;22245;52.832;13.816;2022-11-25T14:44:02;101615.59;;;6.59;87.39
17764;BME280;22245;52.832;13.816;2022-11-25T14:47:29;101613.88;;;6.58;87.54
17764;BME280;22245;52.832;13.816;2022-11-25T14:51:00;101622.66;;;6.58;87.26
17764;BME280;22245;52.832;13.816;2022-11-25T14:54:22;101627.13;;;6.58;87.23
17764;BME280;22245;52.832;13.816;2022-11-25T14:57:51;101621.81;;;6.58;87.07
17764;BME280;22245;52.832;13.816;2022-11-25T15:01:17;101620.88;;;6.59;86.73
17764;BME280;22245;52.832;13.816;2022-11-25T15:04:41;101618.31;;;6.57;86.82
17764;BME280;22245;52.832;13.816;2022-11-25T15:08:09;101628.88;;;6.57;86.51
17764;BME280;22245;52.832;13.816;2022-11-25T15:11:33;101636.94;;;6.56;86.64
17764;BME280;22245;52.832;13.816;2022-11-25T15:14:56;101635.22;;;6.55;86.13
17764;BME280;22245;52.832;13.816;2022-11-25T15:18:19;101632.47;;;6.56;85.98
17764;BME280;22245;52.832;13.816;2022-11-25T15:21:44;101631.53;;;6.57;86.03
17764;BME280;22245;52.832;13.816;2022-11-25T15:25:26;101640.41;;;6.56;85.98
17764;BME280;22245;52.832;13.816;2022-11-25T15:28:53;101648.28;;;6.58;86.37
17764;BME280;22245;52.832;13.816;2022-11-25T15:32:18;101643.75;;;6.60;86.59
17764;BME280;22245;52.832;13.816;2022-11-25T15:35:40;101648.97;;;6.61;85.90
17764;BME280;22245;52.832;13.816;2022-11-25T15:39:14;101655.34;;;6.57;86.15
17764;BME280;22245;52.832;13.816;2022-11-25T15:42:36;101651.00;;;6.56;85.81
17764;BME280;22245;52.832;13.816;2022-11-25T15:46:01;101652.09;;;6.52;85.90
17764;BME280;22245;52.832;13.816;2022-11-25T15:49:24;101647.69;;;6.53;85.76
17764;BME280;22245;52.832;13.816;2022-11-25T15:52:49;101650.41;;;6.51;85.52
17764;BME280;22245;52.832;13.816;2022-11-25T15:56:18;101648.78;;;6.48;85.51
17764;BME280;22245;52.832;13.816;2022-11-25T15:59:48;101654.09;;;6.48;85.70
17764;BME280;22245;52.832;13.816;2022-11-25T16:03:19;101658.59;;;6.46;85.58
17764;BME280;22245;52.832;13.816;2022-11-25T16:06:51;101657.91;;;6.43;86.02
17764;BME280;22245;52.832;13.816;2022-11-25T16:10:17;101657.97;;;6.41;86.35
17764;BME280;22245;52.832;13.816;2022-11-25T16:13:40;101648.31;;;6.40;86.13
17764;BME280;22245;52.832;13.816;2022-11-25T16:17:04;101653.59;;;6.40;86.33
17764;BME280;22245;52.832;13.816;2022-11-25T16:20:26;101658.91;;;6.40;86.20
17764;BME280;22245;52.832;13.816;2022-11-25T16:23:51;101658.91;;;6.40;86.53
17764;BME280;22245;52.832;13.816;2022-11-25T16:27:16;101661.53;;;6.40;86.28
17764;BME280;22245;52.832;13.816;2022-11-25T16:30:40;101660.78;;;6.38;86.61
17764;BME280;22245;52.832;13.816;2022-11-25T16:34:10;101665.13;;;6.39;86.67
17764;BME280;22245;52.832;13.816;2022-11-25T16:37:33;101662.41;;;6.41;86.68
17764;BME280;22245;52.832;13.816;2022-11-25T16:40:55;101664.19;;;6.40;86.66
17764;BME280;22245;52.832;13.816;2022-11-25T16:44:19;101664.28;;;6.39;86.80
17764;BME280;22245;52.832;13.816;2022-11-25T16:47:44;101668.66;;;6.40;87.05
17764;BME280;22245;52.832;13.816;2022-11-25T16:51:08;101667.72;;;6.41;87.09
17764;BME280;22245;52.832;13.816;2022-11-25T16:54:34;101663.25;;;6.41;87.01
17764;BME280;22245;52.832;13.816;2022-11-25T16:57:57;101665.91;;;6.41;87.17
17764;BME280;22245;52.832;13.816;2022-11-25T17:01:21;101664.19;;;6.40;86.91
17764;BME280;22245;52.832;13.816;2022-11-25T17:04:46;101667.78;;;6.39;87.45
17764;BME280;22245;52.832;13.816;2022-11-25T17:08:08;101674.78;;;6.40;87.70
17764;BME280;22245;52.832;13.816;2022-11-25T17:11:32;101676.66;;;6.38;88.09
17764;BME280;22245;52.832;13.816;2022-11-25T17:14:58;101678.38;;;6.39;88.08
17764;BME280;22245;52.832;13.816;2022-11-25T17:18:21;101680.22;;;6.37;88.09
17764;BME280;22245;52.832;13.816;2022-11-25T17:21:45;101686.56;;;6.34;88.19
17764;BME280;22245;52.832;13.816;2022-11-25T17:25:08;101693.63;;;6.34;88.30
17764;BME280;22245;52.832;13.816;2022-11-25T17:28:30;101694.56;;;6.33;88.46
17764;BME280;22245;52.832;13.816;2022-11-25T17:31:52;101699.84;;;6.33;88.43
17764;BME280;22245;52.832;13.816;2022-11-25T17:35:18;101701.81;;;6.29;88.38
17764;BME280;22245;52.832;13.816;2022-11-25T17:38:42;101704.47;;;6.29;88.16
17764;BME280;22245;52.832;13.816;2022-11-25T17:42:04;101701.88;;;6.28;88.50
17764;BME280;22245;52.832;13.816;2022-11-25T17:45:26;101702.22;;;6.21;88.21
17764;BME280;22245;52.832;13.816;2022-11-25T17:48:48;101704.75;;;6.23;88.34
17764;BME280;22245;52.832;13.816;2022-11-25T17:52:11;101713.63;;;6.22;88.22
17764;BME280;22245;52.832;13.816;2022-11-25T17:55:35;101712.69;;;6.23;88.31
17764;BME280;22245;52.832;13.816;2022-11-25T17:59:01;101714.50;;;6.22;88.28
17764;BME280;22245;52.832;13.816;2022-11-25T18:02:24;101710.97;;;6.22;88.07
17764;BME280;22245;52.832;13.816;2022-11-25T18:05:46;101714.66;;;6.19;87.96
17764;BME280;22245;52.832;13.816;2022-11-25T18:09:09;101717.47;;;6.16;87.91